createdAt,value
2022-12-26T00:03:01.789Z,3.31
2022-12-26T00:06:04.079Z,3.28
2022-12-26T00:09:06.878Z,3.23
2022-12-26T00:12:08.808Z,3.21
2022-12-26T00:15:10.872Z,3.19
2022-12-26T00:18:12.849Z,3.17
2022-12-26T00:21:16.207Z,3.12
2022-12-26T00:24:18.050Z,3.12
2022-12-26T00:27:20.237Z,3.12
2022-12-26T00:30:22.559Z,3.13
2022-12-26T00:33:24.620Z,3.13
2022-12-26T00:36:32.857Z,3.12
2022-12-26T00:39:34.710Z,3.18
2022-12-26T00:42:36.486Z,3.21
2022-12-26T00:45:38.336Z,3.22
2022-12-26T00:48:40.213Z,3.20
2022-12-26T00:51:42.050Z,3.25
2022-12-26T00:54:43.896Z,3.27
2022-12-26T00:57:45.796Z,3.25
2022-12-26T01:00:48.361Z,3.25
2022-12-26T01:03:51.153Z,3.26
2022-12-26T01:06:52.996Z,3.28
2022-12-26T01:09:54.900Z,3.27
2022-12-26T01:12:56.755Z,3.26
2022-12-26T01:15:58.654Z,3.27
2022-12-26T01:19:00.593Z,3.29
2022-12-26T01:22:03.637Z,3.30
2022-12-26T01:25:06.101Z,3.28
2022-12-26T01:28:08.144Z,3.27
2022-12-26T01:31:09.978Z,3.26
2022-12-26T01:34:11.929Z,3.23
2022-12-26T01:37:14.716Z,3.24
2022-12-26T01:40:16.727Z,3.23
2022-12-26T01:43:18.574Z,3.24
2022-12-26T01:46:31.215Z,3.20
2022-12-26T01:49:41.996Z,3.20
2022-12-26T01:52:47.198Z,3.17
2022-12-26T01:55:59.236Z,3.13
2022-12-26T01:59:15.402Z,3.16
2022-12-26T02:02:19.418Z,3.17
2022-12-26T02:05:35.261Z,3.13
2022-12-26T02:08:39.158Z,3.10
2022-12-26T02:11:48.758Z,3.09
2022-12-26T02:15:13.932Z,3.09
2022-12-26T02:18:15.776Z,3.10
2022-12-26T02:21:49.922Z,3.07
2022-12-26T02:25:11.292Z,3.07
2022-12-26T02:28:25.915Z,3.04
2022-12-26T02:31:55.374Z,3.04
2022-12-26T02:35:06.091Z,3.04
2022-12-26T02:38:21.926Z,3.03
2022-12-26T02:41:32.449Z,3.01
2022-12-26T02:45:33.633Z,3.02
2022-12-26T02:48:44.301Z,3.00
2022-12-26T02:52:16.890Z,2.99
2022-12-26T02:56:00.698Z,2.94
2022-12-26T02:59:54.527Z,2.90
2022-12-26T03:03:40.940Z,2.92
2022-12-26T03:07:06.803Z,2.88
2022-12-26T03:10:38.585Z,2.88
2022-12-26T03:13:42.013Z,2.87
2022-12-26T03:17:08.628Z,2.88
2022-12-26T03:20:20.907Z,2.90
2022-12-26T03:23:23.083Z,2.91
2022-12-26T03:26:41.083Z,2.93
2022-12-26T03:30:21.414Z,2.93
2022-12-26T03:33:43.410Z,2.92
2022-12-26T03:37:03.658Z,2.96
2022-12-26T03:41:05.392Z,2.94
2022-12-26T03:44:55.476Z,2.91
2022-12-26T03:48:33.292Z,2.87
2022-12-26T03:52:05.487Z,2.83
2022-12-26T03:55:37.901Z,2.79
2022-12-26T03:59:29.331Z,2.74
2022-12-26T04:02:52.461Z,2.70
2022-12-26T04:06:16.038Z,2.71
2022-12-26T04:09:53.511Z,2.66
2022-12-26T04:13:16.855Z,2.65
2022-12-26T04:16:54.148Z,2.63
2022-12-26T04:20:01.956Z,2.65
2022-12-26T04:23:41.916Z,2.63
2022-12-26T04:27:06.380Z,2.67
2022-12-26T04:30:27.192Z,2.68
2022-12-26T04:33:58.805Z,2.72
2022-12-26T04:37:23.754Z,2.71
2022-12-26T04:40:49.381Z,2.73
2022-12-26T04:44:25.400Z,2.74
2022-12-26T04:47:27.318Z,2.72
2022-12-26T04:50:29.800Z,2.75
2022-12-26T04:53:31.696Z,2.75
2022-12-26T04:56:33.888Z,2.72
2022-12-26T04:59:35.836Z,2.70
2022-12-26T05:02:56.703Z,2.67
2022-12-26T05:06:17.284Z,2.65
2022-12-26T05:09:35.287Z,2.63
2022-12-26T05:12:37.134Z,2.60
2022-12-26T05:15:57.808Z,2.59
2022-12-26T05:19:18.126Z,2.54
2022-12-26T05:22:39.726Z,2.48
2022-12-26T05:26:03.260Z,2.54
2022-12-26T05:29:05.329Z,2.45
2022-12-26T05:32:07.200Z,2.49
2022-12-26T05:35:09.311Z,2.53
2022-12-26T05:38:11.950Z,2.54
2022-12-26T05:41:14.629Z,2.53
2022-12-26T05:44:16.525Z,2.54
2022-12-26T05:47:19.821Z,2.53
2022-12-26T05:50:21.723Z,2.54
2022-12-26T05:53:23.515Z,2.51
2022-12-26T05:56:25.468Z,2.46
2022-12-26T05:59:27.748Z,2.47
2022-12-26T06:02:29.848Z,2.50
2022-12-26T06:05:32.015Z,2.52
2022-12-26T06:08:34.410Z,2.54
2022-12-26T06:11:36.250Z,2.55
2022-12-26T06:14:38.035Z,2.56
2022-12-26T06:17:39.843Z,2.59
2022-12-26T06:20:41.661Z,2.61
2022-12-26T06:23:44.055Z,2.62
2022-12-26T06:26:45.978Z,2.61
2022-12-26T06:29:48.495Z,2.61
2022-12-26T06:32:50.384Z,2.60
2022-12-26T06:35:54.643Z,2.61
2022-12-26T06:38:57.287Z,2.62
2022-12-26T06:41:59.058Z,2.62
2022-12-26T06:45:00.916Z,2.63
2022-12-26T06:48:03.194Z,2.62
2022-12-26T06:51:06.855Z,2.64
2022-12-26T06:54:09.548Z,2.65
2022-12-26T06:57:11.502Z,2.67
2022-12-26T07:00:14.224Z,2.68
2022-12-26T07:03:16.306Z,2.66
2022-12-26T07:06:33.000Z,2.65
2022-12-26T07:09:34.994Z,2.69
2022-12-26T07:12:36.812Z,2.67
2022-12-26T07:15:38.990Z,2.64
2022-12-26T07:18:41.131Z,2.59
2022-12-26T07:21:43.533Z,2.55
2022-12-26T07:24:45.299Z,2.56
2022-12-26T07:27:47.178Z,2.54
2022-12-26T07:30:50.400Z,2.51
2022-12-26T07:33:54.716Z,2.48
2022-12-26T07:36:56.552Z,2.46
2022-12-26T07:39:59.327Z,2.44
2022-12-26T07:43:01.188Z,2.38
2022-12-26T07:46:03.012Z,2.42
2022-12-26T07:49:05.147Z,2.42
2022-12-26T07:52:07.012Z,2.39
2022-12-26T07:55:09.389Z,2.38
2022-12-26T07:58:11.316Z,2.40
2022-12-26T08:01:13.222Z,2.39
2022-12-26T08:04:15.190Z,2.40
2022-12-26T08:08:21.180Z,2.37
2022-12-26T08:11:24.584Z,2.33
2022-12-26T08:14:26.453Z,2.35
2022-12-26T08:17:31.436Z,2.38
2022-12-26T08:20:34.663Z,2.35
2022-12-26T08:23:36.631Z,2.31
2022-12-26T08:26:38.557Z,2.30
2022-12-26T08:29:40.379Z,2.29
2022-12-26T08:32:46.031Z,2.28
2022-12-26T08:35:48.333Z,2.29
2022-12-26T08:38:50.139Z,2.29
2022-12-26T08:41:52.079Z,2.29
2022-12-26T08:44:54.176Z,2.31
2022-12-26T08:47:56.016Z,2.31
2022-12-26T08:51:09.344Z,2.28
2022-12-26T08:54:11.559Z,2.21
2022-12-26T08:57:13.904Z,2.27
2022-12-26T09:00:16.348Z,2.26
2022-12-26T09:03:18.358Z,2.25
2022-12-26T09:06:20.381Z,2.27
2022-12-26T09:09:22.232Z,2.25
2022-12-26T09:12:24.145Z,2.24
2022-12-26T09:15:25.945Z,2.22
2022-12-26T09:18:27.870Z,2.20
2022-12-26T09:21:30.478Z,2.18
2022-12-26T09:24:32.329Z,2.16
2022-12-26T09:27:34.551Z,2.14
2022-12-26T09:30:37.079Z,2.10
2022-12-26T09:33:39.555Z,2.13
2022-12-26T09:36:41.518Z,2.15
2022-12-26T09:39:43.330Z,2.16
2022-12-26T09:46:59.831Z,2.11
2022-12-26T09:50:07.555Z,2.11
2022-12-26T09:53:18.034Z,2.11
2022-12-26T10:00:02.055Z,2.06
2022-12-26T10:04:29.157Z,2.04
2022-12-26T10:07:48.558Z,2.00
2022-12-26T10:11:07.706Z,2.02
2022-12-26T10:14:21.383Z,2.04
2022-12-26T10:17:23.692Z,2.07
2022-12-26T10:20:54.147Z,2.11
2022-12-26T10:24:15.851Z,2.13
2022-12-26T10:27:20.025Z,2.11
2022-12-26T10:30:27.419Z,2.16
2022-12-26T10:34:04.515Z,2.19
2022-12-26T10:37:30.905Z,2.19
2022-12-26T10:40:43.810Z,2.16
2022-12-26T10:43:46.066Z,2.14
2022-12-26T10:47:12.774Z,2.18
2022-12-26T10:50:20.237Z,2.17
2022-12-26T10:53:24.539Z,2.17
2022-12-26T10:56:27.570Z,2.25
2022-12-26T10:59:38.451Z,2.29
2022-12-26T11:02:40.647Z,2.37
2022-12-26T11:06:08.179Z,2.44
2022-12-26T11:09:35.832Z,2.45
2022-12-26T11:12:50.199Z,2.35
2022-12-26T11:15:53.582Z,2.33
2022-12-26T11:18:56.431Z,2.37
2022-12-26T11:22:26.564Z,2.37
2022-12-26T11:25:29.480Z,2.32
2022-12-26T11:28:33.204Z,2.29
2022-12-26T11:31:35.730Z,2.31
2022-12-26T11:34:46.075Z,2.30
2022-12-26T11:37:53.893Z,2.24
2022-12-26T11:41:14.311Z,2.23
2022-12-26T11:44:16.111Z,2.25
2022-12-26T11:47:21.064Z,2.21
2022-12-26T11:50:26.969Z,2.23
2022-12-26T11:53:28.873Z,2.23
2022-12-26T11:56:30.730Z,2.22
2022-12-26T11:59:32.788Z,2.24
2022-12-26T12:02:36.975Z,2.24
2022-12-26T15:30:19.202Z,1.11
2022-12-26T15:33:33.432Z,1.23
2022-12-26T15:37:08.082Z,1.29
2022-12-26T15:40:24.862Z,1.35
2022-12-26T15:43:58.448Z,1.38
2022-12-26T15:47:38.831Z,1.37
2022-12-26T15:50:49.358Z,1.41
2022-12-26T15:54:15.503Z,1.41
2022-12-26T15:57:34.420Z,1.43
2022-12-26T16:00:47.419Z,1.38
2022-12-26T16:03:56.955Z,1.40
2022-12-26T16:07:51.901Z,1.43
2022-12-26T16:11:21.959Z,1.38
2022-12-26T16:14:31.368Z,1.41
2022-12-26T16:17:34.113Z,1.44
2022-12-26T16:20:55.139Z,1.43
2022-12-26T16:23:57.551Z,1.40
2022-12-26T16:27:03.472Z,1.47
2022-12-26T16:30:12.890Z,1.49
2022-12-26T16:33:15.244Z,1.52
2022-12-26T16:36:24.699Z,1.50
2022-12-26T16:39:26.630Z,1.55
2022-12-26T16:42:31.205Z,1.53
2022-12-26T16:45:38.186Z,1.51
2022-12-26T16:48:41.670Z,1.51
2022-12-26T16:51:43.500Z,1.50
2022-12-26T16:54:45.291Z,1.51
2022-12-26T16:57:47.142Z,1.48
2022-12-26T17:01:14.213Z,1.50
2022-12-26T17:04:18.362Z,1.52
2022-12-26T17:07:20.948Z,1.55
2022-12-26T17:10:29.631Z,1.58
2022-12-26T17:13:31.703Z,1.56
2022-12-26T17:16:33.831Z,1.57
2022-12-26T17:19:37.308Z,1.58
2022-12-26T17:22:39.225Z,1.57
2022-12-26T17:25:45.624Z,1.60
2022-12-26T17:28:51.457Z,1.63
2022-12-26T17:31:53.325Z,1.62
2022-12-26T17:34:55.221Z,1.61
2022-12-26T17:38:02.875Z,1.59
2022-12-26T17:41:06.917Z,1.59
2022-12-26T17:44:42.933Z,1.61
2022-12-26T17:47:45.275Z,1.50
2022-12-26T17:50:56.183Z,1.49
2022-12-26T17:53:58.054Z,1.50
2022-12-26T17:57:00.819Z,1.49
2022-12-26T18:00:07.418Z,1.52
2022-12-26T18:03:09.444Z,1.53
2022-12-26T18:06:16.547Z,1.52
2022-12-26T18:09:29.163Z,1.48
2022-12-26T18:12:31.097Z,1.47
2022-12-26T18:15:32.895Z,1.52
2022-12-26T18:18:37.615Z,1.52
2022-12-26T18:21:40.289Z,1.50
2022-12-26T18:24:42.239Z,1.52
2022-12-26T18:27:44.422Z,1.52
2022-12-26T18:30:46.923Z,1.53
2022-12-26T18:33:48.811Z,1.51
2022-12-26T18:36:50.853Z,1.54
2022-12-26T18:39:53.065Z,1.57
2022-12-26T18:42:55.591Z,1.58
2022-12-26T18:45:58.777Z,1.60
2022-12-26T18:49:00.837Z,1.61
2022-12-26T18:52:03.539Z,1.59
2022-12-26T18:55:05.803Z,1.58
2022-12-26T18:58:08.172Z,1.56
2022-12-26T19:01:14.255Z,1.48
2022-12-26T19:04:16.696Z,1.51
2022-12-26T19:07:20.483Z,1.53
2022-12-26T19:10:25.869Z,1.53
2022-12-26T19:13:28.253Z,1.53
2022-12-26T19:16:30.140Z,1.53
2022-12-26T19:19:32.540Z,1.55
2022-12-26T19:22:34.764Z,1.57
2022-12-26T19:25:36.605Z,1.56
2022-12-26T19:28:39.221Z,1.58
2022-12-26T19:31:41.749Z,1.58
2022-12-26T19:34:43.612Z,1.54
2022-12-26T19:37:45.949Z,1.53
2022-12-26T19:40:47.780Z,1.51
2022-12-26T19:43:56.139Z,1.56
2022-12-26T19:47:11.453Z,1.55
2022-12-26T19:50:14.791Z,1.56
2022-12-26T19:53:16.759Z,1.59
2022-12-26T19:56:23.934Z,1.59
2022-12-26T19:59:26.439Z,1.61
2022-12-26T20:02:28.539Z,1.61
2022-12-26T20:05:30.458Z,1.61
2022-12-26T20:08:32.336Z,1.61
2022-12-26T20:11:37.506Z,1.61
2022-12-26T20:14:39.347Z,1.65
2022-12-26T20:17:41.230Z,1.64
2022-12-26T20:20:43.311Z,1.65
2022-12-26T20:23:45.758Z,1.68
2022-12-26T20:26:49.323Z,1.68
2022-12-26T20:29:51.227Z,1.69
2022-12-26T20:32:53.094Z,1.71
2022-12-26T20:36:02.121Z,1.74
2022-12-26T20:39:07.156Z,1.76
2022-12-26T20:42:09.109Z,1.78
2022-12-26T20:45:11.210Z,1.78
2022-12-26T20:48:13.373Z,1.78
2022-12-26T20:51:20.901Z,1.80
2022-12-26T20:54:22.933Z,1.81
2022-12-26T20:57:24.770Z,1.80
2022-12-26T21:00:26.679Z,1.82
2022-12-26T21:03:30.361Z,1.85
2022-12-26T21:06:35.309Z,1.85
2022-12-26T21:09:42.448Z,1.86
2022-12-26T21:12:47.675Z,1.86
2022-12-26T21:15:49.695Z,1.89
2022-12-26T21:18:51.786Z,1.83
2022-12-26T21:21:55.366Z,1.81
2022-12-26T21:24:58.276Z,1.80
2022-12-26T21:28:00.039Z,1.79
2022-12-26T21:31:02.675Z,1.78
2022-12-26T21:34:05.817Z,1.75
2022-12-26T21:37:26.077Z,1.75
2022-12-26T21:40:28.010Z,1.71
2022-12-26T21:43:30.588Z,1.75
2022-12-26T21:46:32.635Z,1.77
2022-12-26T21:49:35.033Z,1.80
2022-12-26T21:52:36.886Z,1.77
2022-12-26T21:55:38.848Z,1.77
2022-12-26T21:58:59.644Z,1.77
2022-12-26T22:02:01.720Z,1.77
2022-12-26T22:05:04.068Z,1.79
2022-12-26T22:08:08.471Z,1.79
2022-12-26T22:11:36.065Z,1.83
2022-12-26T22:14:37.957Z,1.85
2022-12-26T22:17:39.774Z,1.83
2022-12-26T22:20:41.720Z,1.84
2022-12-26T22:23:44.641Z,1.90
2022-12-26T22:26:46.501Z,1.87
2022-12-26T22:29:48.443Z,1.91
2022-12-26T22:32:50.268Z,1.89
2022-12-26T22:35:52.267Z,1.91
2022-12-26T22:38:54.449Z,1.93
2022-12-26T22:42:02.129Z,1.96
2022-12-26T22:45:04.714Z,1.95
2022-12-26T22:48:06.683Z,1.98
2022-12-26T22:51:09.530Z,2.00
2022-12-26T22:54:11.369Z,1.98
2022-12-26T22:57:13.957Z,1.97
2022-12-26T23:00:16.095Z,1.98
2022-12-26T23:03:18.889Z,2.01
2022-12-26T23:06:24.597Z,2.03
2022-12-26T23:09:26.772Z,2.04
2022-12-26T23:12:44.114Z,2.07
2022-12-26T23:16:09.466Z,2.07
2022-12-26T23:19:35.084Z,2.04
2022-12-26T23:22:37.148Z,2.01
2022-12-26T23:25:39.715Z,2.02
2022-12-26T23:29:00.507Z,2.04
2022-12-26T23:32:03.329Z,2.05
2022-12-26T23:35:06.466Z,2.05
2022-12-26T23:38:08.336Z,2.06
2022-12-26T23:41:10.196Z,2.06
2022-12-26T23:44:12.246Z,2.05
2022-12-26T23:47:14.141Z,2.04
2022-12-26T23:50:17.294Z,2.04
2022-12-26T23:53:19.072Z,2.04
2022-12-26T23:56:21.172Z,2.03
2022-12-26T23:59:23.070Z,2.06
